Terminal Aerodrome Forecast
Issued by NWS Upton, NY

Home | Current Version | Previous Version | Text Only | Print | Product List | Glossary On
Versions: 1 2 3 4 5 6 7 8 9 10 11 12 13 14 15 16 17 18 19 20 21 22 23 24 25 26 27 28 29 30 31 32 33 34
638
FTUS41 KOKX 251737
TAFISP
TAF
KISP 251737Z 2518/2618 21012KT P6SM SCT070 SCT100
     FM252300 22008KT P6SM SCT070 SCT120
     FM260200 25005KT P6SM SCT070 SCT120
     FM260500 27004KT P6SM SKC
     FM261200 29007KT P6SM SKC
     FM261500 26010KT P6SM FEW050
     FM261700 22012KT P6SM SCT050=

USA.gov is the U.S. government's official web portal to all federal, state and local government web resources and services.